Pagina principale
METAR-TAF:

METAR-TAF

Aeroporti :

Aeroporto Internazionale di Chicago-O'Hare

Chicago, Illinois, Stati Uniti

latitudine: 41-58-47N, longitudine: 087-54-16W, altezza: 203 m

Osservazione

Il bollettino è stato emesso 50 minuti fa, alle 22:51 UTC
Vento 6 kt da ovest/nord-ovest
Temperature 9°C
Umidità 37%
Pressione 1028 hPa
Visibilità: 16.1 km
Cielo sereno

METAR: KORD 172251Z 30006KT 10SM CLR 09/M05 A3036 RMK AO2 SLP282 T00941050

Ora: 18:41 (23:41 UTC)

Previsione

Il bollettino è stato emesso 2 ore e 48 minuti fa, alle 20:53 UTC
Previsione valida dal 17 alle 21 UTC al 18 alle 24 UTC
Vento 11 kt da ovest/nord-ovest con raffiche fino a 18 kt
Visibilità: 10 km
Poco nuvoloso ad un'altezza di 4500 ft
A partire da 18 alle 0000 UTC
Vento 5 kt da nord-ovest
Visibilità: 10 km
Cielo sereno
A partire da 18 alle 1300 UTC
Vento 6 kt da sud-ovest
Visibilità: 10 km
Cielo sereno

TAF: KORD 172053Z 1721/1824 30011G18KT P6SM FEW045 FM180000 31005KT P6SM SKC FM181300 23006KT P6SM SKC

Osservazioni e previsioni meteorologiche di più di 4000 aeroporti (messaggi METAR e TAF).

Le stazioni disponibili sono rappresentate dai dischi gialli e rossi sulla carta.

Puntare il mouse per vedere il nome della stazione.

Clicca sopra per visualizzare le osservazioni e previsioni meteorologiche.

Per cambiare la mappa : fare clic sui pulsanti verdi con una croce nera per ingrandire, il pulsante verde con un trattino per diminuire, o sulla freccia verde per le mappe adiacenti.


METAR-TAF: